Time;durP1;ratioP1;P1;durP2;ratioP2;P2;SDS_P1;SDS_P2;PMS_P1;PMS_P2;Temp;Humidity;BMP_temperature;BMP_pressure;BME280_temperature;BME280_humidity;BME280_pressure;Samples;Min_cycle;Max_cycle;Signal;HPM_P1;HPM_P2
2021/12/02 00:01:41;;;;;;;;;;;;;;;;;;5034284;28;19957;-90
2021/12/02 00:04:06;;;;;;;;;;;;;;;;;;5034351;28;20373;-90
2021/12/02 00:06:31;;;;;;;;;;;;;;;;;;5034105;28;19925;-90
2021/12/02 00:08:59;;;;;;;;;;;;;;;;;;5017487;28;19953;-88
2021/12/02 00:11:24;;;;;;;;;;;;;;;;;;5039719;28;19921;-90
2021/12/02 00:13:55;;;;;;;;;;;;;;;;;;5033576;28;19934;-90
2021/12/02 00:17:10;;;;;;;;;;;;;;;;;;5032345;28;19967;-91
2021/12/02 00:21:53;;;;;;;;;;;;;;;;;;5032692;28;19968;-90
2021/12/02 00:24:37;;;;;;;;;;;;;;;;;;5016311;28;20370;-90
2021/12/02 00:27:12;;;;;;;;;;;;;;;;;;5016059;28;19921;-88
2021/12/02 00:29:39;;;;;;;;;;;;;;;;;;5015473;28;20020;-84
2021/12/02 00:32:08;;;;;;;;;;;;;;;;;;5015110;28;19917;-89
2021/12/02 00:35:05;;;;;;;;;;;;;;;;;;5014941;28;19957;-86
2021/12/02 00:37:30;;;;;;;;;;;;;;;;;;5017823;28;19925;-86
2021/12/02 00:39:56;;;;;;;;;;;;;;;;;;5014924;28;19932;-86
2021/12/02 00:42:21;;;;;;;;;;;;;;;;;;4998479;28;19925;-85
2021/12/02 00:44:46;;;;;;;;;;;;;;;;;;5032488;28;19925;-85
2021/12/02 00:47:22;;;;;;;;;;;;;;;;;;5033116;28;20007;-86
2021/12/02 00:49:57;;;;;;;;;;;;;;;;;;4996819;28;20008;-85
2021/12/02 00:52:26;;;;;;;;;;;;;;;;;;5017904;28;19921;-85
2021/12/02 00:54:55;;;;;;;;;;;;;;;;;;4995081;28;19939;-84
2021/12/02 00:57:20;;;;;;;;;;;;;;;;;;5011828;28;20462;-85
2021/12/02 00:59:48;;;;;;;;;;;;;;;;;;5015812;28;19917;-86
2021/12/02 01:02:23;;;;;;;;;;;;;;;;;;5015035;28;19998;-86
2021/12/02 01:05:24;;;;;;;;;;;;;;;;;;5036545;28;19921;-85
2021/12/02 01:07:52;;;;;;;;;;;;;;;;;;5036406;28;19921;-86
2021/12/02 01:10:18;;;;;;;;;;;;;;;;;;5019268;28;19921;-86
2021/12/02 01:12:56;;;;;;;;;;;;;;;;;;5036487;28;19917;-86
2021/12/02 01:15:25;;;;;;;;;;;;;;;;;;5002168;28;20242;-86
2021/12/02 01:18:03;;;;;;;;;;;;;;;;;;5018535;28;19917;-86
2021/12/02 01:20:41;;;;;;;;;;;;;;;;;;5001362;28;19921;-86
2021/12/02 01:23:07;;;;;;;;;;;;;;;;;;5019101;28;20356;-86
2021/12/02 01:25:32;;;;;;;;;;;;;;;;;;4999402;28;19925;-86
2021/12/02 01:28:04;;;;;;;;;;;;;;;;;;5015812;28;19961;-86
2021/12/02 01:30:38;;;;;;;;;;;;;;;;;;5000930;28;19922;-87
2021/12/02 01:33:10;;;;;;;;;;;;;;;;;;5016429;28;20021;-86
2021/12/02 01:35:36;;;;;;;;;;;;;;;;;;4999314;28;19932;-86
2021/12/02 01:38:04;;;;;;;;;;;;;;;;;;5035943;28;19917;-86
2021/12/02 01:40:29;;;;;;;;;;;;;;;;;;4998758;28;20408;-86
2021/12/02 01:42:57;;;;;;;;;;;;;;;;;;5017939;28;19921;-86
2021/12/02 01:46:09;;;;;;;;;;;;;;;;;;5002436;28;20270;-86
2021/12/02 01:48:23;;;;;;;;;;;;;;;;;;5018854;28;19921;-87
2021/12/02 01:51:02;;;;;;;;;;;;;;;;;;5018261;28;20296;-85
2021/12/02 01:53:30;;;;;;;;;;;;;;;;;;5003589;28;19921;-86
2021/12/02 01:56:28;;;;;;;;;;;;;;;;;;5017920;28;19932;-86
2021/12/02 01:59:05;;;;;;;;;;;;;;;;;;5019389;28;20080;-85
2021/12/02 02:01:33;;;;;;;;;;;;;;;;;;5010797;28;19921;-86
2021/12/02 02:04:02;;;;;;;;;;;;;;;;;;5018394;28;20416;-85
2021/12/02 02:06:27;;;;;;;;;;;;;;;;;;5035745;28;20447;-86
2021/12/02 02:08:53;;;;;;;;;;;;;;;;;;5018344;28;20036;-84
2021/12/02 02:11:26;;;;;;;;;;;;;;;;;;4989147;28;20289;-86
2021/12/02 02:13:55;;;;;;;;;;;;;;;;;;5017777;28;20302;-85
2021/12/02 02:16:25;;;;;;;;;;;;;;;;;;5034975;28;19921;-83
2021/12/02 02:19:03;;;;;;;;;;;;;;;;;;5016708;28;19971;-84
2021/12/02 02:21:36;;;;;;;;;;;;;;;;;;5001329;28;19921;-84
2021/12/02 02:24:05;;;;;;;;;;;;;;;;;;5035521;28;19974;-84
2021/12/02 02:26:44;;;;;;;;;;;;;;;;;;5035447;28;19921;-84
2021/12/02 02:29:10;;;;;;;;;;;;;;;;;;5035408;28;20317;-84
2021/12/02 02:31:40;;;;;;;;;;;;;;;;;;5035513;28;19925;-84
2021/12/02 02:34:09;;;;;;;;;;;;;;;;;;5002143;28;20265;-84
2021/12/02 02:36:40;;;;;;;;;;;;;;;;;;5034953;28;20346;-84
2021/12/02 02:39:09;;;;;;;;;;;;;;;;;;5022356;28;19917;-85
2021/12/02 02:41:40;;;;;;;;;;;;;;;;;;5035453;28;19986;-86
2021/12/02 02:44:09;;;;;;;;;;;;;;;;;;5017620;28;19949;-86
2021/12/02 02:46:38;;;;;;;;;;;;;;;;;;5034923;28;19928;-86
2021/12/02 02:49:13;;;;;;;;;;;;;;;;;;5017656;28;19960;-87
2021/12/02 02:51:38;;;;;;;;;;;;;;;;;;5007732;28;19921;-85
2021/12/02 02:54:11;;;;;;;;;;;;;;;;;;5017416;28;20373;-87
2021/12/02 02:56:42;;;;;;;;;;;;;;;;;;5017522;28;20016;-87
2021/12/02 02:59:27;;;;;;;;;;;;;;;;;;5034632;28;19921;-88
2021/12/02 03:12:37;;;;;;;;;;;;;;;;;;5017477;28;20119;-90
2021/12/02 03:17:28;;;;;;;;;;;;;;;;;;5017254;28;19921;-86
2021/12/02 03:19:54;;;;;;;;;;;;;;;;;;5034038;28;19956;-87
2021/12/02 03:22:19;;;;;;;;;;;;;;;;;;5034176;28;19944;-87
2021/12/02 03:24:44;;;;;;;;;;;;;;;;;;5034673;28;19921;-86
2021/12/02 03:27:10;;;;;;;;;;;;;;;;;;5034018;28;20366;-86
2021/12/02 03:29:35;;;;;;;;;;;;;;;;;;5034470;28;20362;-86
2021/12/02 03:32:03;;;;;;;;;;;;;;;;;;5017164;28;19932;-90
2021/12/02 03:34:28;;;;;;;;;;;;;;;;;;5016919;28;20437;-85
2021/12/02 03:36:55;;;;;;;;;;;;;;;;;;5034556;28;20016;-86
2021/12/02 03:39:21;;;;;;;;;;;;;;;;;;5034555;28;19921;-89
2021/12/02 03:41:46;;;;;;;;;;;;;;;;;;5033998;28;19932;-90
2021/12/02 03:44:16;;;;;;;;;;;;;;;;;;5034542;28;19921;-90
2021/12/02 03:46:41;;;;;;;;;;;;;;;;;;5037217;28;19917;-90
2021/12/02 03:49:06;;;;;;;;;;;;;;;;;;5033819;28;19932;-90
2021/12/02 03:51:34;;;;;;;;;;;;;;;;;;5016405;28;19924;-90
2021/12/02 03:54:03;;;;;;;;;;;;;;;;;;5034644;28;19921;-87
2021/12/02 03:56:28;;;;;;;;;;;;;;;;;;5016171;28;19921;-87
2021/12/02 03:58:53;;;;;;;;;;;;;;;;;;5034159;28;19928;-87
2021/12/02 04:01:19;;;;;;;;;;;;;;;;;;5033886;28;20012;-87
2021/12/02 04:03:45;;;;;;;;;;;;;;;;;;5033470;28;19963;-87
2021/12/02 04:06:13;;;;;;;;;;;;;;;;;;5016463;28;19967;-87
2021/12/02 04:13:45;;;;;;;;;;;;;;;;;;5033699;28;19992;-87
2021/12/02 04:16:15;;;;;;;;;;;;;;;;;;5034340;28;19932;-87
2021/12/02 04:18:43;;;;;;;;;;;;;;;;;;5033657;28;19921;-87
2021/12/02 04:21:08;;;;;;;;;;;;;;;;;;5033958;28;19921;-86
2021/12/02 04:23:36;;;;;;;;;;;;;;;;;;5034073;28;19924;-85
2021/12/02 04:26:04;;;;;;;;;;;;;;;;;;5022848;28;19979;-86
2021/12/02 04:28:29;;;;;;;;;;;;;;;;;;5020624;28;19921;-85
2021/12/02 04:30:54;;;;;;;;;;;;;;;;;;5016036;28;20040;-85
2021/12/02 04:33:20;;;;;;;;;;;;;;;;;;5033217;28;19987;-85
2021/12/02 04:35:45;;;;;;;;;;;;;;;;;;5033209;28;20274;-85
2021/12/02 04:38:10;;;;;;;;;;;;;;;;;;5017298;28;19960;-88
2021/12/02 04:40:40;;;;;;;;;;;;;;;;;;5037428;28;20030;-86
2021/12/02 04:43:05;;;;;;;;;;;;;;;;;;5037402;28;19939;-86
2021/12/02 04:45:31;;;;;;;;;;;;;;;;;;5019798;28;20334;-88
2021/12/02 04:47:56;;;;;;;;;;;;;;;;;;5021247;28;19967;-88
2021/12/02 04:50:21;;;;;;;;;;;;;;;;;;5041475;28;20023;-86
2021/12/02 04:52:46;;;;;;;;;;;;;;;;;;5057751;28;19931;-86
2021/12/02 04:55:12;;;;;;;;;;;;;;;;;;5052144;28;19964;-86
2021/12/02 04:57:39;;;;;;;;;;;;;;;;;;5050889;28;19932;-90
2021/12/02 05:00:05;;;;;;;;;;;;;;;;;;5057945;28;19921;-90
2021/12/02 05:02:33;;;;;;;;;;;;;;;;;;5036136;28;19929;-91
2021/12/02 05:04:58;;;;;;;;;;;;;;;;;;5023267;28;19920;-91
2021/12/02 05:07:24;;;;;;;;;;;;;;;;;;5056801;28;19932;-89
2021/12/02 05:09:49;;;;;;;;;;;;;;;;;;5056967;28;19948;-90
2021/12/02 05:12:24;;;;;;;;;;;;;;;;;;;;;
2021/12/02 05:14:52;;;;;;;;;;;;;;;;;;5016434;28;19931;-86
2021/12/02 05:17:17;;;;;;;;;;;;;;;;;;5035728;28;19967;-88
2021/12/02 05:19:43;;;;;;;;;;;;;;;;;;5020515;28;19961;-88
2021/12/02 05:22:08;;;;;;;;;;;;;;;;;;5047821;28;20028;-88
2021/12/02 05:24:34;;;;;;;;;;;;;;;;;;5037041;28;19931;-88
2021/12/02 05:26:59;;;;;;;;;;;;;;;;;;5035571;28;19944;-88
2021/12/02 05:29:24;;;;;;;;;;;;;;;;;;5036931;28;20516;-90
2021/12/02 05:31:49;;;;;;;;;;;;;;;;;;5019737;28;20422;-90
2021/12/02 05:34:14;;;;;;;;;;;;;;;;;;5054055;28;20389;-88
2021/12/02 05:36:40;;;;;;;;;;;;;;;;;;5031891;28;20346;-86
2021/12/02 05:39:05;;;;;;;;;;;;;;;;;;5056969;28;19917;-87
2021/12/02 05:41:31;;;;;;;;;;;;;;;;;;5042455;28;19921;-87
2021/12/02 05:43:56;;;;;;;;;;;;;;;;;;5041537;28;19921;-87
2021/12/02 05:46:22;;;;;;;;;;;;;;;;;;5050295;28;20232;-87
2021/12/02 05:48:47;;;;;;;;;;;;;;;;;;5037684;28;19920;-87
2021/12/02 05:51:12;;;;;;;;;;;;;;;;;;5045937;28;20118;-87
2021/12/02 05:53:37;;;;;;;;;;;;;;;;;;5036193;28;19921;-88
2021/12/02 05:56:05;;;;;;;;;;;;;;;;;;5036393;28;19925;-87
2021/12/02 05:58:30;;;;;;;;;;;;;;;;;;5039983;28;19921;-88
2021/12/02 06:00:56;;;;;;;;;;;;;;;;;;5040665;28;19921;-88
2021/12/02 06:03:21;;;;;;;;;;;;;;;;;;5002299;28;19964;-88
2021/12/02 06:05:47;;;;;;;;;;;;;;;;;;5043204;28;19932;-86
2021/12/02 06:08:13;;;;;;;;;;;;;;;;;;5044566;28;20258;-86
2021/12/02 06:10:38;;;;;;;;;;;;;;;;;;5018357;28;19959;-86
2021/12/02 06:13:06;;;;;;;;;;;;;;;;;;5036208;28;19986;-87
2021/12/02 06:15:31;;;;;;;;;;;;;;;;;;5036216;28;20292;-86
2021/12/02 06:17:56;;;;;;;;;;;;;;;;;;5033435;28;19931;-86
2021/12/02 06:20:22;;;;;;;;;;;;;;;;;;5054162;28;19921;-87
2021/12/02 06:22:47;;;;;;;;;;;;;;;;;;5004519;28;19929;-87
2021/12/02 06:27:42;;;;;;;;;;;;;;;;;;5037154;28;19921;-86
2021/12/02 06:30:08;;;;;;;;;;;;;;;;;;5035752;28;19921;-87
2021/12/02 06:32:35;;;;;;;;;;;;;;;;;;5036274;28;20228;-86
2021/12/02 06:35:00;;;;;;;;;;;;;;;;;;5018228;28;19921;-86
2021/12/02 06:37:26;;;;;;;;;;;;;;;;;;5017874;28;20342;-87
2021/12/02 06:39:51;;;;;;;;;;;;;;;;;;5019130;28;21880;-88
2021/12/02 06:42:19;;;;;;;;;;;;;;;;;;5037192;28;19940;-86
2021/12/02 06:44:45;;;;;;;;;;;;;;;;;;5036168;28;19921;-86
2021/12/02 06:47:10;;;;;;;;;;;;;;;;;;5037290;28;20289;-86
2021/12/02 06:49:38;;;;;;;;;;;;;;;;;;5038652;28;20008;-86
2021/12/02 06:52:04;;;;;;;;;;;;;;;;;;5010887;28;20367;-88
2021/12/02 06:54:29;;;;;;;;;;;;;;;;;;4998308;28;19921;-88
2021/12/02 06:56:54;;;;;;;;;;;;;;;;;;5035301;28;19928;-87
2021/12/02 06:59:20;;;;;;;;;;;;;;;;;;5039782;28;19921;-86
2021/12/02 07:01:45;;;;;;;;;;;;;;;;;;5046802;28;19931;-87
2021/12/02 07:04:11;;;;;;;;;;;;;;;;;;5031555;28;19968;-87
2021/12/02 07:06:38;;;;;;;;;;;;;;;;;;5034826;28;20354;-87
2021/12/02 07:09:04;;;;;;;;;;;;;;;;;;5026296;28;21024;-89
2021/12/02 07:11:29;;;;;;;;;;;;;;;;;;5055237;28;20012;-88
2021/12/02 07:14:00;;;;;;;;;;;;;;;;;;5041270;28;19976;-87
2021/12/02 07:16:25;;;;;;;;;;;;;;;;;;5045272;28;19955;-87
2021/12/02 07:18:55;;;;;;;;;;;;;;;;;;5031057;28;19932;-87
2021/12/02 07:21:20;;;;;;;;;;;;;;;;;;5027979;28;20033;-87
2021/12/02 07:23:45;;;;;;;;;;;;;;;;;;5039894;28;19921;-87
2021/12/02 07:26:10;;;;;;;;;;;;;;;;;;5000867;28;19979;-87
2021/12/02 07:28:36;;;;;;;;;;;;;;;;;;5034060;28;19963;-87
2021/12/02 07:31:03;;;;;;;;;;;;;;;;;;5034878;28;20010;-86
2021/12/02 07:33:29;;;;;;;;;;;;;;;;;;5038422;28;19920;-85
2021/12/02 07:35:54;;;;;;;;;;;;;;;;;;5045098;28;19925;-90
2021/12/02 07:38:19;;;;;;;;;;;;;;;;;;5034398;28;19918;-87
2021/12/02 07:40:45;;;;;;;;;;;;;;;;;;5016994;28;19921;-87
2021/12/02 07:43:10;;;;;;;;;;;;;;;;;;5036342;28;19974;-86
2021/12/02 07:45:37;;;;;;;;;;;;;;;;;;5035100;28;19931;-86
2021/12/02 07:48:04;;;;;;;;;;;;;;;;;;5034590;28;19932;-87
2021/12/02 07:50:29;;;;;;;;;;;;;;;;;;5042051;28;19921;-88
2021/12/02 07:52:58;;;;;;;;;;;;;;;;;;5011852;28;19927;-88
2021/12/02 07:55:24;;;;;;;;;;;;;;;;;;5035420;28;19924;-89
2021/12/02 07:57:49;;;;;;;;;;;;;;;;;;5033160;28;19921;-89
2021/12/02 08:00:15;;;;;;;;;;;;;;;;;;5033795;28;19928;-89
2021/12/02 08:02:48;;;;;;;;;;;;;;;;;;5032138;28;19927;-88
2021/12/02 08:05:13;;;;;;;;;;;;;;;;;;5033622;28;20602;-89
2021/12/02 08:07:39;;;;;;;;;;;;;;;;;;5033401;28;20003;-88
2021/12/02 08:10:08;;;;;;;;;;;;;;;;;;5033602;28;19943;-88
2021/12/02 08:12:34;;;;;;;;;;;;;;;;;;5014232;28;19990;-89
2021/12/02 08:15:01;;;;;;;;;;;;;;;;;;5033367;28;20007;-89
2021/12/02 08:17:26;;;;;;;;;;;;;;;;;;5036733;28;19921;-91
2021/12/02 08:19:54;;;;;;;;;;;;;;;;;;5033850;28;19921;-89
2021/12/02 08:22:19;;;;;;;;;;;;;;;;;;5034863;28;19921;-90
2021/12/02 08:24:44;;;;;;;;;;;;;;;;;;5048055;28;19932;-88
2021/12/02 08:27:10;;;;;;;;;;;;;;;;;;5046852;28;19921;-88
2021/12/02 08:29:42;;;;;;;;;;;;;;;;;;5047300;28;19928;-89
2021/12/02 08:32:07;;;;;;;;;;;;;;;;;;5008705;28;20397;-87
2021/12/02 08:34:32;;;;;;;;;;;;;;;;;;5033515;28;19925;-87
2021/12/02 08:36:57;;;;;;;;;;;;;;;;;;5033403;28;19913;-87
2021/12/02 08:39:26;;;;;;;;;;;;;;;;;;5032930;28;19971;-86
2021/12/02 08:41:54;;;;;;;;;;;;;;;;;;5033721;28;19933;-87
2021/12/02 08:44:20;;;;;;;;;;;;;;;;;;5032875;28;19921;-87
2021/12/02 08:46:47;;;;;;;;;;;;;;;;;;5015420;28;19921;-87
2021/12/02 08:49:13;;;;;;;;;;;;;;;;;;5016013;28;19991;-87
2021/12/02 08:51:38;;;;;;;;;;;;;;;;;;5036894;28;20330;-87
2021/12/02 08:54:03;;;;;;;;;;;;;;;;;;5036112;28;19936;-86
2021/12/02 08:56:28;;;;;;;;;;;;;;;;;;5035998;28;19932;-86
2021/12/02 08:58:54;;;;;;;;;;;;;;;;;;5047922;28;19940;-87
2021/12/02 09:01:19;;;;;;;;;;;;;;;;;;5033314;28;20010;-86
2021/12/02 09:03:44;;;;;;;;;;;;;;;;;;5032919;28;20000;-87
2021/12/02 09:06:11;;;;;;;;;;;;;;;;;;5015723;28;20008;-86
2021/12/02 09:08:38;;;;;;;;;;;;;;;;;;5016290;28;19979;-87
2021/12/02 09:11:03;;;;;;;;;;;;;;;;;;5003314;28;19932;-86
2021/12/02 09:13:31;;;;;;;;;;;;;;;;;;5032992;28;19922;-85
2021/12/02 09:15:57;;;;;;;;;;;;;;;;;;5033005;28;20011;-85
2021/12/02 09:18:25;;;;;;;;;;;;;;;;;;5032700;28;20036;-85
2021/12/02 09:20:50;;;;;;;;;;;;;;;;;;5032821;28;20460;-88
2021/12/02 09:23:15;;;;;;;;;;;;;;;;;;5033432;28;20031;-87
2021/12/02 09:25:41;;;;;;;;;;;;;;;;;;5049856;28;19929;-86
2021/12/02 09:28:09;;;;;;;;;;;;;;;;;;5037955;28;19932;-86
2021/12/02 09:30:35;;;;;;;;;;;;;;;;;;5019571;28;19921;-86
2021/12/02 09:33:00;;;;;;;;;;;;;;;;;;5037070;28;20377;-86
2021/12/02 09:35:25;;;;;;;;;;;;;;;;;;5037782;28;19917;-85
2021/12/02 09:37:51;;;;;;;;;;;;;;;;;;5037206;28;19922;-84
2021/12/02 09:40:16;;;;;;;;;;;;;;;;;;5018843;28;19957;-84
2021/12/02 09:42:41;;;;;;;;;;;;;;;;;;5018842;28;19932;-84
2021/12/02 09:45:07;;;;;;;;;;;;;;;;;;5049229;28;19921;-86
2021/12/02 09:47:39;;;;;;;;;;;;;;;;;;5029091;28;20240;-86
2021/12/02 09:50:11;;;;;;;;;;;;;;;;;;5036584;28;20350;-86
2021/12/02 09:52:39;;;;;;;;;;;;;;;;;;5015314;28;19925;-87
2021/12/02 09:55:10;;;;;;;;;;;;;;;;;;5019645;28;19928;-85
2021/12/02 09:57:43;;;;;;;;;;;;;;;;;;5020284;28;19979;-85
2021/12/02 10:00:15;;;;;;;;;;;;;;;;;;5036209;28;19979;-86
2021/12/02 10:02:41;;;;;;;;;;;;;;;;;;5033167;28;19921;-86
2021/12/02 10:05:09;;;;;;;;;;;;;;;;;;5037143;28;19933;-86
2021/12/02 10:07:45;;;;;;;;;;;;;;;;;;5035288;28;20261;-85
2021/12/02 10:10:14;;;;;;;;;;;;;;;;;;5020263;28;19960;-86
2021/12/02 10:12:49;;;;;;;;;;;;;;;;;;5019334;28;19986;-87
2021/12/02 10:15:16;;;;;;;;;;;;;;;;;;5023311;28;19929;-89
2021/12/02 10:17:53;;;;;;;;;;;;;;;;;;5036920;28;19968;-87
2021/12/02 10:23:06;;;;;;;;;;;;;;;;;;5036388;28;19921;-91
2021/12/02 10:25:50;;;;;;;;;;;;;;;;;;5025217;28;19987;-90
2021/12/02 10:28:17;;;;;;;;;;;;;;;;;;5021784;28;19932;-88
2021/12/02 10:30:49;;;;;;;;;;;;;;;;;;5017498;28;19921;-87
2021/12/02 10:33:14;;;;;;;;;;;;;;;;;;5042730;28;19925;-87
2021/12/02 10:35:45;;;;;;;;;;;;;;;;;;5010288;28;19932;-85
2021/12/02 10:38:29;;;;;;;;;;;;;;;;;;5049113;28;19916;-85
2021/12/02 10:41:03;;;;;;;;;;;;;;;;;;5043162;28;19921;-87
2021/12/02 10:43:28;;;;;;;;;;;;;;;;;;5043315;28;19925;-85
2021/12/02 10:46:12;;;;;;;;;;;;;;;;;;5044058;28;19955;-87
2021/12/02 10:48:48;;;;;;;;;;;;;;;;;;5041482;28;19932;-88
2021/12/02 10:51:32;;;;;;;;;;;;;;;;;;5021247;28;20404;-85
2021/12/02 10:54:07;;;;;;;;;;;;;;;;;;5036194;28;19972;-85
2021/12/02 10:56:36;;;;;;;;;;;;;;;;;;5036084;28;20454;-85
2021/12/02 10:59:20;;;;;;;;;;;;;;;;;;5039620;28;20296;-84
2021/12/02 11:01:48;;;;;;;;;;;;;;;;;;5020884;28;19921;-86
2021/12/02 11:04:14;;;;;;;;;;;;;;;;;;5017705;28;20342;-86
2021/12/02 11:06:42;;;;;;;;;;;;;;;;;;5035718;28;20346;-84
2021/12/02 11:09:27;;;;;;;;;;;;;;;;;;5038074;28;19943;-87
2021/12/02 11:12:11;;;;;;;;;;;;;;;;;;5017790;28;19921;-89
2021/12/02 11:14:38;;;;;;;;;;;;;;;;;;5027476;28;19961;-88
2021/12/02 11:17:13;;;;;;;;;;;;;;;;;;5033778;28;20000;-88
2021/12/02 11:19:41;;;;;;;;;;;;;;;;;;5035732;28;19920;-88
2021/12/02 11:22:07;;;;;;;;;;;;;;;;;;5018101;28;19921;-87
2021/12/02 11:24:33;;;;;;;;;;;;;;;;;;5034427;28;20342;-88
2021/12/02 11:27:28;;;;;;;;;;;;;;;;;;5018076;28;19964;-88
2021/12/02 11:32:57;;;;;;;;;;;;;;;;;;5031604;28;20007;-87
2021/12/02 11:35:23;;;;;;;;;;;;;;;;;;5032138;28;20397;-89
2021/12/02 11:37:53;;;;;;;;;;;;;;;;;;5034417;28;19921;-87
2021/12/02 11:40:20;;;;;;;;;;;;;;;;;;5034813;28;20318;-88
2021/12/02 11:42:50;;;;;;;;;;;;;;;;;;5017317;28;19961;-85
2021/12/02 11:45:16;;;;;;;;;;;;;;;;;;5017049;28;19921;-88
2021/12/02 11:47:42;;;;;;;;;;;;;;;;;;5016271;28;19932;-88
2021/12/02 11:50:08;;;;;;;;;;;;;;;;;;5016260;28;19932;-88
2021/12/02 11:52:35;;;;;;;;;;;;;;;;;;5030995;28;20498;-85
2021/12/02 11:55:03;;;;;;;;;;;;;;;;;;5033971;28;19975;-88
2021/12/02 11:57:30;;;;;;;;;;;;;;;;;;5034196;28;19987;-88
2021/12/02 11:59:55;;;;;;;;;;;;;;;;;;5015883;28;20254;-87
2021/12/02 12:02:23;;;;;;;;;;;;;;;;;;5020323;28;19921;-87
2021/12/02 12:04:52;;;;;;;;;;;;;;;;;;5015926;28;19929;-87
2021/12/02 12:07:17;;;;;;;;;;;;;;;;;;5015890;28;19964;-86
2021/12/02 12:09:42;;;;;;;;;;;;;;;;;;5028129;28;20277;-87
2021/12/02 12:12:10;;;;;;;;;;;;;;;;;;5033231;28;19928;-87
2021/12/02 12:14:37;;;;;;;;;;;;;;;;;;5027051;28;19927;-87
2021/12/02 12:17:09;;;;;;;;;;;;;;;;;;5019162;28;19921;-88
2021/12/02 12:19:39;;;;;;;;;;;;;;;;;;5015309;28;19936;-87
2021/12/02 12:22:23;;;;;;;;;;;;;;;;;;5033084;28;19983;-88
2021/12/02 12:24:53;;;;;;;;;;;;;;;;;;5033831;28;19921;-89
2021/12/02 12:27:25;;;;;;;;;;;;;;;;;;5032006;28;19921;-88
2021/12/02 12:30:03;;;;;;;;;;;;;;;;;;5009740;28;19921;-88
2021/12/02 12:38:04;;;;;;;;;;;;;;;;;;5003506;28;19921;-88
2021/12/02 12:40:41;;;;;;;;;;;;;;;;;;5016416;28;19921;-90
2021/12/02 12:43:09;;;;;;;;;;;;;;;;;;5035171;28;19921;-88
2021/12/02 12:45:37;;;;;;;;;;;;;;;;;;5032373;28;19972;-87
2021/12/02 12:48:06;;;;;;;;;;;;;;;;;;5023878;28;19921;-85
2021/12/02 12:50:33;;;;;;;;;;;;;;;;;;5015650;28;19929;-84
2021/12/02 12:53:07;;;;;;;;;;;;;;;;;;5015821;28;19929;-83
2021/12/02 12:55:56;;;;;;;;;;;;;;;;;;5033040;28;19952;-85
2021/12/02 12:58:26;;;;;;;;;;;;;;;;;;5015922;28;20011;-85
2021/12/02 13:00:51;;;;;;;;;;;;;;;;;;5018951;28;20038;-84
2021/12/02 13:03:21;;;;;;;;;;;;;;;;;;5019596;28;20355;-85
2021/12/02 13:05:55;;;;;;;;;;;;;;;;;;5019764;28;19965;-85
2021/12/02 13:08:20;;;;;;;;;;;;;;;;;;5021114;28;19928;-88
2021/12/02 13:11:08;;;;;;;;;;;;;;;;;;5037675;28;19921;-87
2021/12/02 13:13:34;;;;;;;;;;;;;;;;;;5040848;28;19943;-87
2021/12/02 13:16:20;;;;;;;;;;;;;;;;;;5043554;28;20707;-88
2021/12/02 13:18:46;;;;;;;;;;;;;;;;;;5035933;28;19999;-87
2021/12/02 13:21:21;;;;;;;;;;;;;;;;;;5041287;28;19921;-87
2021/12/02 13:24:04;;;;;;;;;;;;;;;;;;5037876;28;19921;-88
2021/12/02 13:26:31;;;;;;;;;;;;;;;;;;5022997;28;19921;-89
2021/12/02 13:29:16;;;;;;;;;;;;;;;;;;5044888;28;19988;-87
2021/12/02 13:31:43;;;;;;;;;;;;;;;;;;5035095;28;19921;-87
2021/12/02 13:34:14;;;;;;;;;;;;;;;;;;5022372;28;19952;-87
2021/12/02 13:36:43;;;;;;;;;;;;;;;;;;5040183;28;19921;-86
2021/12/02 13:39:18;;;;;;;;;;;;;;;;;;5039990;28;19928;-87
2021/12/02 13:41:52;;;;;;;;;;;;;;;;;;5025120;28;19929;-86
2021/12/02 13:44:20;;;;;;;;;;;;;;;;;;5040510;28;20082;-83
2021/12/02 13:46:53;;;;;;;;;;;;;;;;;;5040564;28;19956;-86
2021/12/02 13:49:21;;;;;;;;;;;;;;;;;;5024219;28;19921;-90
2021/12/02 13:54:33;;;;;;;;;;;;;;;;;;5033956;28;20253;-88
2021/12/02 13:57:17;;;;;;;;;;;;;;;;;;5041444;28;19920;-89
2021/12/02 13:59:42;;;;;;;;;;;;;;;;;;5044825;28;20354;-89
2021/12/02 14:02:08;;;;;;;;;;;;;;;;;;5050488;28;19921;-90
2021/12/02 14:04:43;;;;;;;;;;;;;;;;;;5046092;28;19929;-90
2021/12/02 14:07:22;;;;;;;;;;;;;;;;;;5044449;28;19921;-90
2021/12/02 14:09:51;;;;;;;;;;;;;;;;;;5036163;28;19921;-87
2021/12/02 14:12:17;;;;;;;;;;;;;;;;;;5042862;28;19943;-88
2021/12/02 14:15:02;;;;;;;;;;;;;;;;;;5049978;28;20303;-89
2021/12/02 14:17:29;;;;;;;;;;;;;;;;;;5043871;28;19921;-83
2021/12/02 14:20:03;;;;;;;;;;;;;;;;;;5025867;28;20325;-88
2021/12/02 14:22:29;;;;;;;;;;;;;;;;;;5043548;28;19921;-85
2021/12/02 14:24:55;;;;;;;;;;;;;;;;;;5025774;28;20346;-88
2021/12/02 14:27:22;;;;;;;;;;;;;;;;;;5025915;28;19966;-88
2021/12/02 14:29:48;;;;;;;;;;;;;;;;;;5030685;28;19921;-87
2021/12/02 14:32:17;;;;;;;;;;;;;;;;;;5044831;28;20071;-88
2021/12/02 14:34:43;;;;;;;;;;;;;;;;;;5028281;28;19935;-88
2021/12/02 14:37:14;;;;;;;;;;;;;;;;;;5045429;28;20262;-89
2021/12/02 14:39:39;;;;;;;;;;;;;;;;;;5045889;28;19921;-88
2021/12/02 14:42:04;;;;;;;;;;;;;;;;;;5036447;28;19943;-88
2021/12/02 14:44:34;;;;;;;;;;;;;;;;;;5036728;28;20004;-88
2021/12/02 14:47:00;;;;;;;;;;;;;;;;;;5035953;28;19921;-88
2021/12/02 14:49:32;;;;;;;;;;;;;;;;;;5018504;28;19983;-85
2021/12/02 14:51:59;;;;;;;;;;;;;;;;;;5036990;28;19931;-86
2021/12/02 14:54:40;;;;;;;;;;;;;;;;;;5002413;28;19975;-88
2021/12/02 14:57:06;;;;;;;;;;;;;;;;;;5034518;28;19928;-87
2021/12/02 14:59:33;;;;;;;;;;;;;;;;;;5034053;28;19917;-87
2021/12/02 15:02:00;;;;;;;;;;;;;;;;;;5019035;28;19921;-86
2021/12/02 15:04:27;;;;;;;;;;;;;;;;;;5035810;28;19921;-87
2021/12/02 15:06:52;;;;;;;;;;;;;;;;;;5035480;28;19921;-87
2021/12/02 15:09:30;;;;;;;;;;;;;;;;;;5018454;28;19932;-87
2021/12/02 15:11:55;;;;;;;;;;;;;;;;;;5035315;28;19990;-88
2021/12/02 15:14:34;;;;;;;;;;;;;;;;;;5034962;28;20343;-88
2021/12/02 15:16:59;;;;;;;;;;;;;;;;;;5035994;28;19920;-90
2021/12/02 15:19:37;;;;;;;;;;;;;;;;;;5035179;28;20236;-90
2021/12/02 15:22:02;;;;;;;;;;;;;;;;;;5035904;28;19921;-91
2021/12/02 15:24:38;;;;;;;;;;;;;;;;;;5018602;28;20358;-90
2021/12/02 15:27:07;;;;;;;;;;;;;;;;;;5002333;28;20004;-92
2021/12/02 15:29:53;;;;;;;;;;;;;;;;;;5036469;28;19936;-90
2021/12/02 15:32:19;;;;;;;;;;;;;;;;;;5020010;28;19924;-92
2021/12/02 15:34:44;;;;;;;;;;;;;;;;;;5017920;28;19921;-87
2021/12/02 15:37:10;;;;;;;;;;;;;;;;;;5016890;28;20313;-88
2021/12/02 15:39:35;;;;;;;;;;;;;;;;;;4996368;28;20447;-90
2021/12/02 15:42:08;;;;;;;;;;;;;;;;;;5027714;28;19929;-82
2021/12/02 15:44:40;;;;;;;;;;;;;;;;;;5031406;28;20397;-92
2021/12/02 15:47:10;;;;;;;;;;;;;;;;;;5011369;28;20291;-82
2021/12/02 15:49:35;;;;;;;;;;;;;;;;;;4993989;28;20334;-83
2021/12/02 15:55:05;;;;;;;;;;;;;;;;;;5014076;28;20434;-82
2021/12/02 15:57:30;;;;;;;;;;;;;;;;;;5031032;28;19936;-80
2021/12/02 15:59:56;;;;;;;;;;;;;;;;;;5032152;28;20012;-78
2021/12/02 16:02:27;;;;;;;;;;;;;;;;;;5032084;28;20008;-81
2021/12/02 16:07:28;;;;;;;;;;;;;;;;;;5013868;28;19964;-78
2021/12/02 16:12:32;;;;;;;;;;;;;;;;;;5019043;28;19929;-77
2021/12/02 16:14:58;;;;;;;;;;;;;;;;;;5016014;28;19971;-77
2021/12/02 16:17:26;;;;;;;;;;;;;;;;;;5033999;28;19925;-78
2021/12/02 16:19:52;;;;;;;;;;;;;;;;;;5033741;28;20369;-78
2021/12/02 16:22:21;;;;;;;;;;;;;;;;;;5033737;28;19956;-77
2021/12/02 16:24:50;;;;;;;;;;;;;;;;;;5035684;28;20044;-77
2021/12/02 16:27:15;;;;;;;;;;;;;;;;;;5031500;28;19953;-77
2021/12/02 16:29:40;;;;;;;;;;;;;;;;;;5013504;28;19984;-77
2021/12/02 16:32:06;;;;;;;;;;;;;;;;;;5032018;28;20250;-76
2021/12/02 16:34:31;;;;;;;;;;;;;;;;;;5037489;28;20345;-77
2021/12/02 16:36:56;;;;;;;;;;;;;;;;;;5034893;28;20004;-78
2021/12/02 16:39:23;;;;;;;;;;;;;;;;;;5037194;28;19921;-77
2021/12/02 16:41:49;;;;;;;;;;;;;;;;;;5037209;28;19927;-77
2021/12/02 16:44:17;;;;;;;;;;;;;;;;;;5012430;28;19921;-77
2021/12/02 16:46:42;;;;;;;;;;;;;;;;;;5038994;28;19921;-77
2021/12/02 16:49:07;;;;;;;;;;;;;;;;;;5018254;28;19936;-77
2021/12/02 16:51:34;;;;;;;;;;;;;;;;;;5036779;28;20007;-77
2021/12/02 16:54:01;;;;;;;;;;;;;;;;;;5019548;28;19923;-77
2021/12/02 16:56:28;;;;;;;;;;;;;;;;;;5035788;28;20338;-81
2021/12/02 16:58:58;;;;;;;;;;;;;;;;;;5002866;28;19932;-80
2021/12/02 17:01:31;;;;;;;;;;;;;;;;;;5013217;28;21962;-78
2021/12/02 17:03:57;;;;;;;;;;;;;;;;;;5031182;28;19921;-78
2021/12/02 17:06:23;;;;;;;;;;;;;;;;;;5030417;28;19945;-77
2021/12/02 17:08:48;;;;;;;;;;;;;;;;;;5031396;28;19925;-75
2021/12/02 17:11:13;;;;;;;;;;;;;;;;;;5001070;28;20008;-78
2021/12/02 17:13:38;;;;;;;;;;;;;;;;;;5035113;28;20247;-78
2021/12/02 17:16:04;;;;;;;;;;;;;;;;;;5035204;28;19964;-77
2021/12/02 17:18:29;;;;;;;;;;;;;;;;;;5036059;28;20016;-78
2021/12/02 17:20:54;;;;;;;;;;;;;;;;;;5018485;28;19921;-77
2021/12/02 17:23:25;;;;;;;;;;;;;;;;;;5036424;28;19917;-77
2021/12/02 17:25:50;;;;;;;;;;;;;;;;;;5018695;28;19932;-77
2021/12/02 17:28:15;;;;;;;;;;;;;;;;;;5036299;28;19920;-77
2021/12/02 17:30:40;;;;;;;;;;;;;;;;;;5010134;28;19929;-79
2021/12/02 17:33:08;;;;;;;;;;;;;;;;;;5021601;28;19921;-79
2021/12/02 17:35:34;;;;;;;;;;;;;;;;;;5016326;28;19925;-79
2021/12/02 17:38:01;;;;;;;;;;;;;;;;;;5014260;28;19932;-79
2021/12/02 17:40:37;;;;;;;;;;;;;;;;;;5033359;28;20330;-80
2021/12/02 17:43:06;;;;;;;;;;;;;;;;;;5017268;28;19932;-82